createdAt,value
2018-03-27T00:00:45.035Z,41.96
2018-03-27T00:03:10.826Z,42.08
2018-03-27T00:05:36.621Z,41.76
2018-03-27T00:08:02.413Z,42.30
2018-03-27T00:10:28.273Z,42.33
2018-03-27T00:12:54.042Z,42.76
2018-03-27T00:15:19.953Z,42.27
2018-03-27T00:17:45.738Z,42.21
2018-03-27T00:20:11.524Z,41.83
2018-03-27T00:22:37.307Z,41.75
2018-03-27T00:25:03.107Z,42.63
2018-03-27T00:27:35.004Z,42.32
2018-03-27T00:30:06.835Z,42.08
2018-03-27T00:32:38.695Z,42.57
2018-03-27T00:35:10.911Z,42.72
2018-03-27T00:37:42.913Z,42.73
2018-03-27T00:40:14.778Z,43.19
2018-03-27T00:42:42.395Z,42.87
2018-03-27T00:45:08.190Z,42.84
2018-03-27T00:47:34.019Z,42.64
2018-03-27T00:49:59.810Z,42.35
2018-03-27T00:52:25.599Z,41.86
2018-03-27T00:54:51.395Z,42.35
2018-03-27T00:57:17.192Z,42.69
2018-03-27T00:59:43.029Z,42.91
2018-03-27T01:02:08.810Z,43.03
2018-03-27T01:04:34.630Z,43.16
2018-03-27T01:07:00.425Z,43.27
2018-03-27T01:09:26.215Z,42.87
2018-03-27T01:11:52.004Z,43.15
2018-03-27T01:14:17.794Z,43.05
2018-03-27T01:16:43.588Z,42.95
2018-03-27T01:19:09.372Z,43.00
2018-03-27T01:21:35.159Z,42.67
2018-03-27T01:24:00.945Z,42.94
2018-03-27T01:26:26.740Z,42.14
2018-03-27T01:28:52.535Z,42.50
2018-03-27T01:31:18.323Z,42.36
2018-03-27T01:33:44.117Z,43.23
2018-03-27T01:36:09.906Z,42.72
2018-03-27T01:38:35.693Z,42.42
2018-03-27T01:41:01.639Z,42.73
2018-03-27T01:43:27.479Z,42.28
2018-03-27T01:45:53.271Z,42.54
2018-03-27T01:48:19.054Z,42.36
2018-03-27T01:50:44.842Z,42.56
2018-03-27T01:53:10.681Z,42.71
2018-03-27T01:55:36.470Z,42.31
2018-03-27T01:58:03.220Z,42.10
2018-03-27T02:00:29.002Z,41.99
2018-03-27T02:02:54.791Z,42.39
2018-03-27T02:05:21.577Z,42.62
2018-03-27T02:07:47.358Z,42.41
2018-03-27T02:10:13.183Z,42.89
2018-03-27T02:12:45.185Z,42.49
2018-03-27T02:15:17.159Z,43.07
2018-03-27T02:17:49.154Z,42.37
2018-03-27T02:20:21.141Z,42.69
2018-03-27T02:22:46.947Z,43.09
2018-03-27T02:25:12.734Z,43.06
2018-03-27T02:27:38.518Z,43.24
2018-03-27T02:30:04.310Z,43.01
2018-03-27T02:32:30.106Z,42.64
2018-03-27T02:34:55.947Z,42.70
2018-03-27T02:37:21.745Z,42.73
2018-03-27T02:39:47.526Z,43.20
2018-03-27T02:42:13.323Z,43.45
2018-03-27T02:44:39.125Z,43.04
2018-03-27T02:47:04.923Z,42.50
2018-03-27T02:49:30.747Z,42.87
2018-03-27T02:51:56.536Z,42.55
2018-03-27T02:54:22.320Z,42.38
2018-03-27T02:56:48.110Z,42.82
2018-03-27T02:59:13.907Z,43.25
2018-03-27T03:01:39.706Z,43.25
2018-03-27T03:04:05.538Z,42.22
2018-03-27T03:06:31.331Z,42.23
2018-03-27T03:08:57.130Z,42.27
2018-03-27T03:11:22.955Z,41.93
2018-03-27T03:13:48.753Z,42.65
2018-03-27T03:16:14.547Z,42.24
2018-03-27T03:18:40.325Z,42.49
2018-03-27T03:21:06.111Z,42.21
2018-03-27T03:23:31.902Z,41.75
2018-03-27T03:25:57.703Z,41.97
2018-03-27T03:28:23.537Z,42.07
2018-03-27T03:30:49.311Z,42.60
2018-03-27T03:33:15.133Z,42.17
2018-03-27T03:35:40.912Z,42.11
2018-03-27T03:38:06.734Z,42.53
2018-03-27T03:40:32.522Z,41.93
2018-03-27T03:42:58.307Z,41.73
2018-03-27T03:45:25.098Z,42.12
2018-03-27T03:47:50.888Z,41.72
2018-03-27T03:50:16.670Z,42.10
2018-03-27T03:52:42.462Z,41.70
2018-03-27T03:55:08.247Z,41.63
2018-03-27T03:57:34.042Z,41.55
2018-03-27T03:59:59.825Z,42.04
2018-03-27T04:02:25.619Z,42.13
2018-03-27T04:04:51.402Z,42.57
2018-03-27T04:07:17.194Z,41.76
2018-03-27T04:09:42.978Z,42.43
2018-03-27T04:12:08.770Z,41.83
2018-03-27T04:14:34.556Z,41.59
2018-03-27T04:17:00.408Z,41.98
2018-03-27T04:19:26.197Z,41.64
2018-03-27T04:21:51.986Z,41.30
2018-03-27T04:24:17.778Z,41.61
2018-03-27T04:26:43.565Z,41.54
2018-03-27T04:29:09.347Z,41.15
2018-03-27T04:31:35.133Z,41.03
2018-03-27T04:34:00.929Z,41.51
2018-03-27T04:36:26.714Z,41.09
2018-03-27T04:38:52.500Z,41.14
2018-03-27T04:41:18.335Z,41.58
2018-03-27T04:43:44.167Z,41.16
2018-03-27T04:46:09.951Z,41.44
2018-03-27T04:48:35.775Z,41.77
2018-03-27T04:51:01.584Z,41.09
2018-03-27T04:53:27.408Z,41.33
2018-03-27T04:55:53.199Z,42.00
2018-03-27T04:58:18.986Z,41.43
2018-03-27T05:00:44.771Z,41.90
2018-03-27T05:03:10.547Z,41.31
2018-03-27T05:05:36.542Z,42.28
2018-03-27T05:08:02.326Z,41.62
2018-03-27T05:10:28.111Z,41.34
2018-03-27T05:12:53.934Z,41.52
2018-03-27T05:15:19.724Z,41.67
2018-03-27T05:17:45.508Z,41.29
2018-03-27T05:20:11.338Z,40.88
2018-03-27T05:22:37.125Z,41.02
2018-03-27T05:25:02.904Z,40.59
2018-03-27T05:27:28.698Z,40.78
2018-03-27T05:29:54.518Z,41.55
2018-03-27T05:32:20.307Z,41.08
2018-03-27T05:34:46.130Z,40.53
2018-03-27T05:37:11.921Z,40.69
2018-03-27T05:39:37.718Z,40.70
2018-03-27T05:42:03.522Z,40.71
2018-03-27T05:44:29.405Z,40.73
2018-03-27T05:46:55.196Z,40.75
2018-03-27T05:49:20.990Z,40.90
2018-03-27T05:51:46.882Z,41.39
2018-03-27T05:54:12.635Z,41.68
2018-03-27T05:56:39.570Z,41.30
2018-03-27T05:59:05.366Z,40.84
2018-03-27T06:01:31.158Z,41.10
2018-03-27T06:03:56.942Z,41.82
2018-03-27T06:06:22.730Z,41.91
2018-03-27T06:08:49.447Z,40.94
2018-03-27T06:11:15.303Z,40.79
2018-03-27T06:13:41.082Z,41.21
2018-03-27T06:16:06.869Z,41.48
2018-03-27T06:18:32.676Z,41.08
2018-03-27T06:20:58.459Z,42.09
2018-03-27T06:23:24.239Z,42.56
2018-03-27T06:25:50.027Z,42.23
2018-03-27T06:28:15.812Z,42.70
2018-03-27T06:30:41.614Z,43.13
2018-03-27T06:33:07.393Z,42.70
2018-03-27T06:35:33.220Z,42.29
2018-03-27T06:37:59.002Z,41.93
2018-03-27T06:40:24.971Z,41.38
2018-03-27T06:42:50.752Z,41.27
2018-03-27T06:45:16.530Z,41.20
2018-03-27T06:47:42.357Z,40.95
2018-03-27T06:50:08.162Z,40.93
2018-03-27T06:52:33.945Z,40.89
2018-03-27T06:54:59.728Z,40.83
2018-03-27T06:57:25.507Z,40.48
2018-03-27T06:59:51.354Z,41.15
2018-03-27T07:02:17.178Z,41.11
2018-03-27T07:04:43.040Z,41.21
2018-03-27T07:07:08.822Z,40.76
2018-03-27T07:09:34.653Z,42.44
2018-03-27T07:12:13.216Z,41.78
2018-03-27T07:14:47.611Z,42.30
2018-03-27T07:17:27.481Z,40.99
2018-03-27T07:19:53.364Z,41.76
2018-03-27T07:22:19.215Z,41.88
2018-03-27T07:24:45.036Z,42.79
2018-03-27T07:27:11.004Z,41.57
2018-03-27T07:29:36.783Z,41.91
2018-03-27T07:32:02.621Z,43.19
2018-03-27T07:34:28.414Z,42.14
2018-03-27T07:36:54.200Z,41.40
2018-03-27T07:39:19.978Z,42.14
2018-03-27T07:41:45.796Z,42.36
2018-03-27T07:44:11.570Z,42.37
2018-03-27T07:46:37.397Z,42.90
2018-03-27T07:49:03.222Z,41.67
2018-03-27T07:51:29.044Z,42.37
2018-03-27T07:53:54.877Z,42.64
2018-03-27T07:56:20.660Z,41.52
2018-03-27T07:58:46.450Z,41.93
2018-03-27T08:01:12.233Z,42.35
2018-03-27T08:03:38.111Z,42.34
2018-03-27T08:06:03.875Z,42.20
2018-03-27T08:08:29.693Z,42.35
2018-03-27T08:10:55.489Z,42.88
2018-03-27T08:13:21.293Z,42.19
2018-03-27T08:15:47.074Z,42.26
2018-03-27T08:18:12.854Z,43.11
2018-03-27T08:20:38.631Z,42.63
2018-03-27T08:23:04.419Z,42.76
2018-03-27T08:25:30.198Z,42.75
2018-03-27T08:27:55.977Z,42.84
2018-03-27T08:30:21.761Z,42.69
2018-03-27T08:32:47.557Z,43.55
2018-03-27T08:35:20.283Z,42.58
2018-03-27T08:37:46.057Z,42.90
2018-03-27T08:40:11.957Z,42.61
2018-03-27T08:42:37.914Z,42.46
2018-03-27T08:45:03.694Z,42.98
2018-03-27T08:47:29.495Z,42.28
2018-03-27T08:49:55.272Z,41.10
2018-03-27T08:52:21.260Z,41.54
2018-03-27T08:54:47.076Z,40.45
2018-03-27T08:57:12.858Z,41.90
2018-03-27T08:59:38.686Z,42.67
2018-03-27T09:02:05.568Z,42.55
2018-03-27T09:04:31.521Z,41.72
2018-03-27T09:06:57.398Z,42.53
2018-03-27T09:09:23.231Z,42.80
2018-03-27T09:11:49.183Z,42.01
2018-03-27T09:14:14.959Z,42.28
2018-03-27T09:16:40.737Z,42.16
2018-03-27T09:19:06.698Z,41.65
2018-03-27T09:21:32.473Z,42.20
2018-03-27T09:23:58.345Z,43.05
2018-03-27T09:26:24.224Z,41.23
2018-03-27T09:28:50.005Z,42.63
2018-03-27T09:31:15.844Z,42.47
2018-03-27T09:33:41.623Z,42.82
2018-03-27T09:36:07.402Z,42.52
2018-03-27T09:38:33.184Z,42.39
2018-03-27T09:40:58.961Z,42.63
2018-03-27T09:43:24.745Z,42.02
2018-03-27T09:45:50.530Z,41.46
2018-03-27T09:48:16.378Z,41.11
2018-03-27T09:50:42.153Z,42.50
2018-03-27T09:53:08.034Z,41.49
2018-03-27T09:55:34.050Z,41.06
2018-03-27T09:58:00.032Z,40.09
2018-03-27T10:00:31.853Z,39.75
2018-03-27T10:02:57.842Z,39.81
2018-03-27T10:05:23.629Z,39.42
2018-03-27T10:07:49.456Z,39.77
2018-03-27T10:10:15.237Z,39.62
2018-03-27T10:12:41.023Z,39.61
2018-03-27T10:15:06.814Z,39.94
2018-03-27T10:17:32.590Z,39.91
2018-03-27T10:19:58.555Z,39.76
2018-03-27T10:22:24.477Z,40.13
2018-03-27T10:24:50.319Z,39.27
2018-03-27T10:27:16.210Z,39.01
2018-03-27T10:29:42.034Z,39.28
2018-03-27T10:32:07.853Z,38.63
2018-03-27T10:34:33.689Z,39.11
2018-03-27T10:36:59.538Z,38.96
2018-03-27T10:39:32.138Z,38.71
2018-03-27T10:41:57.970Z,38.61
2018-03-27T10:44:23.753Z,38.32
2018-03-27T10:46:49.542Z,38.56
2018-03-27T10:49:15.356Z,38.76
2018-03-27T10:51:41.130Z,38.27
2018-03-27T10:54:06.970Z,38.34
2018-03-27T10:56:32.750Z,38.22
2018-03-27T10:58:58.557Z,38.39
2018-03-27T11:01:24.386Z,38.17
2018-03-27T11:03:50.207Z,37.96
2018-03-27T11:06:16.034Z,38.57
2018-03-27T11:08:41.830Z,38.23
2018-03-27T11:11:07.686Z,37.95
2018-03-27T11:13:33.477Z,38.02
2018-03-27T11:16:00.426Z,37.84
2018-03-27T11:18:26.358Z,38.43
2018-03-27T11:20:52.290Z,37.79
2018-03-27T11:23:18.206Z,38.61
2018-03-27T11:25:44.083Z,38.83
2018-03-27T11:28:09.910Z,40.56
2018-03-27T11:30:35.690Z,39.65
2018-03-27T11:33:01.506Z,38.46
2018-03-27T11:35:27.297Z,38.40
2018-03-27T11:37:53.180Z,37.82
2018-03-27T11:40:18.934Z,38.07
2018-03-27T11:42:44.762Z,37.61
2018-03-27T11:45:10.569Z,37.80
2018-03-27T11:47:36.668Z,37.64
2018-03-27T11:50:02.459Z,37.57
2018-03-27T11:52:28.300Z,37.47
2018-03-27T11:54:54.106Z,37.64
2018-03-27T11:57:19.895Z,37.45
2018-03-27T11:59:45.711Z,37.47
2018-03-27T12:02:11.542Z,37.38
2018-03-27T12:04:37.365Z,37.15
2018-03-27T12:07:03.148Z,37.02
2018-03-27T12:09:28.938Z,37.38
2018-03-27T12:11:54.723Z,37.09
2018-03-27T12:17:04.859Z,37.08
2018-03-27T12:19:31.635Z,37.21
2018-03-27T12:21:57.456Z,37.28
2018-03-27T12:24:23.502Z,37.17
2018-03-27T12:26:49.527Z,37.42
2018-03-27T12:29:15.426Z,37.17
2018-03-27T12:31:41.245Z,37.71
2018-03-27T12:34:07.063Z,37.56
2018-03-27T12:36:32.882Z,37.09
2018-03-27T12:38:58.704Z,37.28
2018-03-27T12:41:24.522Z,36.97
2018-03-27T12:43:50.346Z,37.12
2018-03-27T12:46:16.159Z,37.10
2018-03-27T12:48:41.987Z,36.87
2018-03-27T12:51:07.810Z,36.89
2018-03-27T12:53:33.639Z,36.90
2018-03-27T12:56:02.899Z,36.71
2018-03-27T12:58:28.870Z,37.30
2018-03-27T13:00:54.852Z,36.99
2018-03-27T13:03:20.838Z,37.77
2018-03-27T13:05:46.853Z,37.67
2018-03-27T13:08:12.849Z,37.33
2018-03-27T13:10:38.829Z,37.42
2018-03-27T13:13:04.809Z,38.50
2018-03-27T13:15:30.845Z,40.18
2018-03-27T13:17:56.836Z,37.77
2018-03-27T13:20:22.880Z,37.40
2018-03-27T13:22:48.905Z,37.23
2018-03-27T13:25:14.890Z,37.41
2018-03-27T13:27:40.868Z,37.36
2018-03-27T13:30:06.862Z,38.72
2018-03-27T13:32:32.847Z,38.89
2018-03-27T13:34:58.840Z,38.48
2018-03-27T13:37:24.835Z,39.44
2018-03-27T13:39:50.828Z,39.16
2018-03-27T13:42:16.805Z,38.20
2018-03-27T13:44:43.563Z,38.22
2018-03-27T13:47:09.536Z,38.80
2018-03-27T13:49:35.554Z,38.23
2018-03-27T13:52:01.528Z,37.78
2018-03-27T13:54:27.495Z,37.89
2018-03-27T13:56:53.463Z,38.16
2018-03-27T13:59:19.458Z,37.58
2018-03-27T14:01:45.435Z,37.64
2018-03-27T14:04:11.420Z,37.55
2018-03-27T14:06:37.400Z,37.89
2018-03-27T14:09:03.409Z,37.35
2018-03-27T14:11:29.442Z,37.00
2018-03-27T14:13:55.415Z,36.77
2018-03-27T14:16:21.399Z,36.88
2018-03-27T14:18:47.389Z,36.59
2018-03-27T14:21:13.371Z,36.58
2018-03-27T14:23:39.381Z,36.97
2018-03-27T14:26:05.395Z,36.42
2018-03-27T14:28:31.375Z,36.41
2018-03-27T14:30:57.354Z,36.41
2018-03-27T14:33:23.349Z,36.22
2018-03-27T14:35:49.315Z,35.86
2018-03-27T14:38:15.299Z,36.11
2018-03-27T14:40:41.326Z,36.07
2018-03-27T14:43:07.296Z,35.87
2018-03-27T14:45:34.128Z,36.20
2018-03-27T14:48:00.135Z,38.01
2018-03-27T14:50:26.147Z,36.42
2018-03-27T14:52:52.177Z,36.18
2018-03-27T14:55:18.239Z,36.26
2018-03-27T14:57:44.207Z,36.99
2018-03-27T15:00:10.183Z,36.22
2018-03-27T15:02:36.210Z,36.23
2018-03-27T15:05:02.192Z,36.07
2018-03-27T15:07:28.225Z,36.33
2018-03-27T15:09:54.245Z,36.50
2018-03-27T15:12:20.214Z,36.44
2018-03-27T15:14:46.235Z,36.69
2018-03-27T15:17:12.208Z,36.52
2018-03-27T15:19:38.222Z,36.29
2018-03-27T15:22:04.250Z,36.65
2018-03-27T15:24:30.215Z,36.31
2018-03-27T15:26:56.236Z,36.50
2018-03-27T15:29:22.213Z,36.03
2018-03-27T15:31:48.217Z,37.58
2018-03-27T15:34:14.192Z,36.80
2018-03-27T15:36:40.251Z,36.53
2018-03-27T15:39:06.223Z,36.54
2018-03-27T15:41:32.191Z,36.33
2018-03-27T15:44:13.113Z,36.12
2018-03-27T15:46:39.132Z,36.68
2018-03-27T15:49:05.231Z,36.32
2018-03-27T15:51:31.243Z,36.09
2018-03-27T15:53:57.383Z,36.40
2018-03-27T15:56:23.418Z,35.96
2018-03-27T15:58:49.450Z,35.87
2018-03-27T16:01:15.427Z,36.41
2018-03-27T16:03:41.524Z,36.17
2018-03-27T16:06:07.495Z,35.97
2018-03-27T16:08:33.648Z,36.15
2018-03-27T16:10:59.631Z,36.14
2018-03-27T16:13:25.627Z,36.35
2018-03-27T16:15:51.649Z,36.29
2018-03-27T16:18:17.663Z,36.23
2018-03-27T16:20:43.637Z,36.91
2018-03-27T16:23:09.730Z,36.71
2018-03-27T16:25:36.674Z,37.09
2018-03-27T16:28:02.686Z,36.61
2018-03-27T16:30:28.663Z,36.52
2018-03-27T16:32:54.687Z,36.33
2018-03-27T16:35:20.658Z,36.52
2018-03-27T16:37:46.680Z,36.41
2018-03-27T16:40:12.643Z,37.13
2018-03-27T16:42:38.626Z,36.54
2018-03-27T16:45:04.643Z,36.53
2018-03-27T16:47:30.623Z,36.53
2018-03-27T16:49:56.662Z,36.34
2018-03-27T16:52:22.638Z,36.62
2018-03-27T16:54:48.622Z,36.19
2018-03-27T16:57:14.602Z,36.48
2018-03-27T16:59:40.610Z,36.59
2018-03-27T17:02:06.646Z,37.08
2018-03-27T17:04:32.617Z,36.52
2018-03-27T17:06:58.591Z,36.78
2018-03-27T17:09:24.618Z,36.69
2018-03-27T17:11:50.594Z,36.77
2018-03-27T17:14:16.589Z,37.03
2018-03-27T17:16:42.632Z,36.95
2018-03-27T17:19:08.611Z,37.25
2018-03-27T17:21:34.582Z,37.39
2018-03-27T17:24:00.568Z,37.56
2018-03-27T17:26:26.602Z,37.64
2018-03-27T17:28:52.587Z,37.36
2018-03-27T17:31:18.571Z,37.63
2018-03-27T17:33:44.566Z,37.63
2018-03-27T17:36:10.534Z,37.85
2018-03-27T17:38:36.583Z,38.36
2018-03-27T17:41:02.582Z,38.00
2018-03-27T17:43:28.691Z,38.58
2018-03-27T17:45:55.594Z,38.53
2018-03-27T17:48:21.606Z,38.89
2018-03-27T17:50:47.760Z,38.73
2018-03-27T17:53:13.777Z,38.44
2018-03-27T17:55:39.815Z,38.48
2018-03-27T17:58:06.653Z,38.62
2018-03-27T18:00:32.838Z,38.85
2018-03-27T18:03:01.056Z,38.43
2018-03-27T18:05:27.691Z,38.39
2018-03-27T18:07:58.293Z,39.09
2018-03-27T18:10:24.322Z,39.00
2018-03-27T18:12:51.194Z,40.04
2018-03-27T18:15:17.246Z,39.30
2018-03-27T18:17:43.574Z,39.05
2018-03-27T18:20:10.039Z,39.30
2018-03-27T18:22:37.607Z,39.07
2018-03-27T18:25:04.085Z,39.14
2018-03-27T18:27:40.675Z,39.25
2018-03-27T18:30:07.143Z,38.92
2018-03-27T18:32:36.017Z,39.61
2018-03-27T18:35:02.555Z,39.41
2018-03-27T18:37:29.030Z,39.14
2018-03-27T18:39:55.707Z,39.12
2018-03-27T18:42:22.609Z,39.12
2018-03-27T18:44:53.360Z,39.25
2018-03-27T18:47:19.874Z,39.18
2018-03-27T18:49:46.642Z,39.23
2018-03-27T18:52:13.134Z,39.02
2018-03-27T18:54:39.755Z,39.19
2018-03-27T18:57:06.438Z,39.41
2018-03-27T18:59:32.979Z,39.59
2018-03-27T19:01:59.510Z,39.73
2018-03-27T19:04:26.158Z,39.18
2018-03-27T19:06:52.738Z,39.27
2018-03-27T19:09:19.323Z,39.48
2018-03-27T19:11:46.298Z,39.20
2018-03-27T19:14:12.838Z,39.36
2018-03-27T19:16:39.536Z,39.02
2018-03-27T19:19:06.080Z,38.98
2018-03-27T19:21:32.648Z,39.13
2018-03-27T19:23:59.215Z,39.12
2018-03-27T19:26:25.930Z,38.87
2018-03-27T19:28:52.443Z,38.83
2018-03-27T19:31:18.971Z,38.79
2018-03-27T19:33:45.619Z,38.64
2018-03-27T19:36:12.595Z,38.52
2018-03-27T19:38:39.166Z,38.88
2018-03-27T19:41:05.959Z,38.50
2018-03-27T19:43:32.532Z,38.67
2018-03-27T19:46:00.872Z,38.61
2018-03-27T19:48:27.495Z,38.99
2018-03-27T19:50:54.211Z,39.60
2018-03-27T19:53:20.734Z,39.18
2018-03-27T19:55:47.256Z,38.88
2018-03-27T19:58:14.767Z,38.71
2018-03-27T20:00:41.319Z,39.12
2018-03-27T20:03:07.999Z,38.54
2018-03-27T20:05:34.666Z,38.50
2018-03-27T20:08:01.496Z,38.36
2018-03-27T20:10:28.079Z,38.62
2018-03-27T20:12:54.652Z,39.02
2018-03-27T20:15:21.354Z,38.72
2018-03-27T20:17:47.942Z,38.36
2018-03-27T20:20:14.668Z,38.08
2018-03-27T20:22:41.219Z,38.20
2018-03-27T20:25:08.547Z,38.42
2018-03-27T20:27:36.381Z,38.26
2018-03-27T20:30:03.035Z,38.56
2018-03-27T20:32:30.123Z,38.22
2018-03-27T20:34:57.271Z,38.19
2018-03-27T20:37:24.042Z,38.27
2018-03-27T20:39:50.739Z,38.24
2018-03-27T20:42:17.872Z,38.33
2018-03-27T20:44:44.794Z,38.04
2018-03-27T20:47:11.598Z,37.87
2018-03-27T20:49:39.031Z,38.25
2018-03-27T20:52:11.242Z,38.08
2018-03-27T20:54:37.692Z,38.83
2018-03-27T20:57:03.920Z,38.06
2018-03-27T21:02:27.310Z,38.16
2018-03-27T21:04:54.651Z,38.20
2018-03-27T21:07:20.718Z,38.54
2018-03-27T21:09:46.739Z,38.80
2018-03-27T21:12:12.719Z,39.07
2018-03-27T21:14:38.683Z,38.52
2018-03-27T21:17:04.667Z,38.82
2018-03-27T21:19:30.679Z,38.22
2018-03-27T21:21:56.659Z,38.96
2018-03-27T21:24:22.667Z,38.53
2018-03-27T21:26:48.647Z,38.21
2018-03-27T21:29:14.686Z,38.66
2018-03-27T21:31:40.659Z,38.67
2018-03-27T21:34:06.664Z,38.20
2018-03-27T21:36:32.639Z,38.29
2018-03-27T21:38:58.675Z,38.45
2018-03-27T21:41:24.642Z,38.67
2018-03-27T21:43:50.606Z,38.37
2018-03-27T21:46:16.572Z,38.07
2018-03-27T21:48:42.538Z,38.67
2018-03-27T21:51:08.546Z,38.27
2018-03-27T21:53:34.515Z,38.26
2018-03-27T21:56:00.487Z,38.59
2018-03-27T21:58:26.497Z,38.11
2018-03-27T22:01:03.524Z,38.38
2018-03-27T22:03:35.674Z,38.63
2018-03-27T22:06:01.663Z,37.91
2018-03-27T22:08:27.670Z,38.34
2018-03-27T22:10:53.634Z,38.06
2018-03-27T22:13:19.603Z,38.40
2018-03-27T22:15:45.578Z,38.45
2018-03-27T22:18:11.590Z,38.41
2018-03-27T22:20:37.558Z,38.05
2018-03-27T22:23:03.578Z,39.04
2018-03-27T22:25:29.595Z,38.28
2018-03-27T22:27:55.564Z,37.89
2018-03-27T22:30:21.531Z,38.00
2018-03-27T22:32:48.303Z,37.78
2018-03-27T22:35:14.278Z,37.81
2018-03-27T22:37:40.249Z,37.94
2018-03-27T22:40:06.217Z,38.99
2018-03-27T22:42:32.182Z,38.30
2018-03-27T22:44:58.146Z,38.43
2018-03-27T22:47:24.106Z,37.90
2018-03-27T22:49:50.083Z,37.60
2018-03-27T22:52:16.050Z,37.52
2018-03-27T22:54:42.026Z,38.71
2018-03-27T22:57:07.999Z,37.85
2018-03-27T22:59:33.970Z,37.81
2018-03-27T23:01:59.942Z,37.98
2018-03-27T23:04:25.919Z,37.84
2018-03-27T23:06:51.930Z,38.18
2018-03-27T23:09:17.900Z,37.79
2018-03-27T23:11:43.942Z,37.92
2018-03-27T23:14:09.914Z,38.78
2018-03-27T23:16:35.886Z,38.19
2018-03-27T23:19:01.854Z,38.51
2018-03-27T23:21:27.817Z,38.68
2018-03-27T23:23:53.803Z,38.17
2018-03-27T23:26:19.776Z,38.27
2018-03-27T23:28:45.750Z,38.99
2018-03-27T23:31:11.715Z,38.40
2018-03-27T23:33:37.686Z,38.41
2018-03-27T23:36:03.657Z,38.75
2018-03-27T23:38:29.634Z,38.52
2018-03-27T23:40:55.674Z,38.65
2018-03-27T23:43:21.681Z,38.55
2018-03-27T23:45:47.654Z,38.21
2018-03-27T23:48:13.616Z,38.35
2018-03-27T23:50:39.586Z,38.73
2018-03-27T23:53:05.562Z,38.54
2018-03-27T23:55:31.529Z,38.30
2018-03-27T23:57:57.500Z,38.32
